Time;durP1;ratioP1;P1;durP2;ratioP2;P2;SDS_P1;SDS_P2;PMS_P1;PMS_P2;Temp;Humidity;BMP_temperature;BMP_pressure;BME280_temperature;BME280_humidity;BME280_pressure;Samples;Min_cycle;Max_cycle;Signal;HPM_P1;HPM_P2
2022/10/09 00:00:48;;;;;;;11.75;1.80;;;;;;;;;;4979262;28;20052;-68
2022/10/09 00:03:16;;;;;;;11.43;2.00;;;;;;;;;;4972313;28;20041;-78
2022/10/09 00:05:41;;;;;;;8.35;1.38;;;;;;;;;;4970740;28;20505;-78
2022/10/09 00:08:07;;;;;;;13.60;2.03;;;;;;;;;;4971049;28;20045;-77
2022/10/09 00:10:32;;;;;;;8.65;1.67;;;;;;;;;;4969097;28;21065;-78
2022/10/09 00:12:58;;;;;;;6.90;1.77;;;;;;;;;;4971644;28;20790;-78
2022/10/09 00:15:23;;;;;;;12.57;2.03;;;;;;;;;;4971165;28;20068;-77
2022/10/09 00:17:48;;;;;;;11.90;1.85;;;;;;;;;;4977701;28;20127;-78
2022/10/09 00:20:14;;;;;;;12.65;2.20;;;;;;;;;;4972230;28;22914;-68
2022/10/09 00:22:40;;;;;;;13.15;2.72;;;;;;;;;;4974267;28;20099;-78
2022/10/09 00:25:08;;;;;;;14.30;3.80;;;;;;;;;;4971247;28;20035;-78
2022/10/09 00:27:34;;;;;;;15.23;3.90;;;;;;;;;;4970519;28;20050;-67
2022/10/09 00:30:00;;;;;;;17.10;4.35;;;;;;;;;;4972081;28;20259;-68
2022/10/09 00:32:25;;;;;;;15.18;4.05;;;;;;;;;;4970434;28;20149;-68
2022/10/09 00:34:53;;;;;;;12.73;3.50;;;;;;;;;;4971102;28;20034;-78
2022/10/09 00:37:18;;;;;;;14.23;3.97;;;;;;;;;;4969829;28;20108;-78
2022/10/09 00:39:46;;;;;;;12.63;3.60;;;;;;;;;;4971035;28;20061;-78
2022/10/09 00:42:12;;;;;;;12.95;3.97;;;;;;;;;;4976343;28;20037;-78
2022/10/09 00:44:43;;;;;;;14.70;4.07;;;;;;;;;;4970841;28;20934;-78
2022/10/09 00:47:22;;;;;;;14.73;3.97;;;;;;;;;;4985682;28;20799;-78
2022/10/09 00:49:53;;;;;;;15.48;4.05;;;;;;;;;;4969018;28;20038;-78
2022/10/09 00:52:19;;;;;;;11.13;4.03;;;;;;;;;;4970799;28;20855;-78
2022/10/09 00:54:47;;;;;;;20.20;4.53;;;;;;;;;;4971658;28;20044;-77
2022/10/09 00:57:13;;;;;;;16.45;4.07;;;;;;;;;;4973728;28;20942;-78
2022/10/09 00:59:39;;;;;;;19.55;4.78;;;;;;;;;;4969998;28;20037;-78
2022/10/09 01:02:06;;;;;;;17.63;4.60;;;;;;;;;;4974319;28;20046;-78
2022/10/09 01:04:35;;;;;;;21.58;4.97;;;;;;;;;;4983080;28;20132;-76
2022/10/09 01:07:10;;;;;;;20.10;5.43;;;;;;;;;;4969873;28;20042;-80
2022/10/09 01:09:55;;;;;;;20.13;6.07;;;;;;;;;;4972025;28;20061;-79
2022/10/09 01:12:30;;;;;;;16.38;5.50;;;;;;;;;;4971372;28;20045;-78
2022/10/09 01:15:06;;;;;;;19.05;5.97;;;;;;;;;;4971355;28;20041;-79
2022/10/09 01:17:50;;;;;;;19.80;5.90;;;;;;;;;;4972264;28;20038;-79
2022/10/09 01:20:25;;;;;;;22.50;6.22;;;;;;;;;;4969908;28;20045;-79
2022/10/09 01:23:00;;;;;;;18.58;6.80;;;;;;;;;;4970987;28;20539;-79
2022/10/09 01:25:25;;;;;;;17.73;6.20;;;;;;;;;;4971866;28;20327;-80
2022/10/09 01:27:51;;;;;;;18.48;5.68;;;;;;;;;;4971632;28;20125;-80
2022/10/09 01:30:20;;;;;;;18.08;5.72;;;;;;;;;;4968452;28;20038;-79
2022/10/09 01:32:47;;;;;;;19.15;5.72;;;;;;;;;;4971638;28;20133;-79
2022/10/09 01:35:13;;;;;;;17.05;5.50;;;;;;;;;;4971733;28;20917;-79
2022/10/09 01:37:39;;;;;;;18.20;5.55;;;;;;;;;;4972138;28;20038;-79
2022/10/09 01:40:05;;;;;;;24.98;7.03;;;;;;;;;;4971343;28;20052;-79
2022/10/09 01:42:31;;;;;;;16.27;6.63;;;;;;;;;;4972120;28;20038;-79
2022/10/09 01:44:56;;;;;;;18.10;6.85;;;;;;;;;;4971639;28;20079;-80
2022/10/09 01:47:22;;;;;;;18.08;7.18;;;;;;;;;;4971667;28;20109;-80
2022/10/09 01:49:47;;;;;;;22.23;7.57;;;;;;;;;;4972786;28;20160;-80
2022/10/09 01:52:24;;;;;;;19.73;7.00;;;;;;;;;;4971211;28;20916;-79
2022/10/09 01:54:59;;;;;;;20.40;7.53;;;;;;;;;;4972216;28;20104;-79
2022/10/09 01:57:31;;;;;;;21.05;6.97;;;;;;;;;;4986177;28;20034;-79
2022/10/09 02:00:00;;;;;;;16.75;6.85;;;;;;;;;;4971113;28;21070;-79
2022/10/09 02:02:26;;;;;;;19.35;7.22;;;;;;;;;;4971109;28;20041;-76
2022/10/09 02:04:54;;;;;;;16.52;7.32;;;;;;;;;;4970775;28;21035;-79
2022/10/09 02:07:19;;;;;;;20.40;7.90;;;;;;;;;;4972008;28;20041;-79
2022/10/09 02:09:45;;;;;;;25.65;12.65;;;;;;;;;;4971458;28;20030;-80
2022/10/09 02:12:11;;;;;;;32.85;15.45;;;;;;;;;;4971279;28;20029;-79
2022/10/09 02:14:38;;;;;;;32.95;12.95;;;;;;;;;;4974355;28;20042;-80
2022/10/09 02:17:06;;;;;;;27.83;9.65;;;;;;;;;;4969657;28;20034;-79
2022/10/09 02:19:44;;;;;;;24.98;7.57;;;;;;;;;;4971455;28;20678;-78
2022/10/09 02:22:14;;;;;;;20.58;7.10;;;;;;;;;;4969497;28;20083;-79
2022/10/09 02:24:40;;;;;;;24.23;7.22;;;;;;;;;;4967280;28;20144;-80
2022/10/09 02:27:06;;;;;;;20.45;8.98;;;;;;;;;;4975390;28;20632;-80
2022/10/09 02:29:31;;;;;;;25.48;10.43;;;;;;;;;;4970427;28;20100;-80
2022/10/09 02:31:57;;;;;;;24.63;8.55;;;;;;;;;;4968152;28;20045;-79
2022/10/09 02:34:22;;;;;;;21.88;8.40;;;;;;;;;;4968688;28;20030;-80
2022/10/09 02:36:48;;;;;;;21.23;7.38;;;;;;;;;;4969828;28;20160;-80
2022/10/09 02:39:14;;;;;;;21.38;7.45;;;;;;;;;;4973829;28;20831;-79
2022/10/09 02:41:42;;;;;;;20.42;6.75;;;;;;;;;;4974712;28;20057;-79
2022/10/09 02:44:07;;;;;;;29.00;7.72;;;;;;;;;;4980108;28;20041;-78
2022/10/09 02:46:33;;;;;;;22.02;8.30;;;;;;;;;;4974114;28;20045;-78
2022/10/09 02:48:58;;;;;;;26.77;9.73;;;;;;;;;;4972084;28;20215;-80
2022/10/09 02:51:24;;;;;;;20.40;8.13;;;;;;;;;;4973337;28;20046;-78
2022/10/09 02:53:51;;;;;;;21.65;7.57;;;;;;;;;;4972843;28;20038;-79
2022/10/09 02:56:16;;;;;;;22.83;6.28;;;;;;;;;;4973119;28;20045;-79
2022/10/09 02:58:44;;;;;;;22.38;7.60;;;;;;;;;;4972195;28;20159;-79
2022/10/09 03:01:10;;;;;;;19.67;7.28;;;;;;;;;;4973181;28;20042;-78
2022/10/09 03:03:35;;;;;;;21.27;7.30;;;;;;;;;;4973761;28;20132;-78
2022/10/09 03:06:08;;;;;;;28.65;7.68;;;;;;;;;;4987319;28;20673;-79
2022/10/09 03:08:33;;;;;;;24.25;8.20;;;;;;;;;;4977338;28;20157;-79
2022/10/09 03:10:59;;;;;;;30.50;7.88;;;;;;;;;;4973387;28;20800;-78
2022/10/09 03:13:24;;;;;;;28.25;7.88;;;;;;;;;;4972443;28;20077;-68
2022/10/09 03:15:52;;;;;;;31.77;9.25;;;;;;;;;;4948044;28;20044;-68
2022/10/09 03:18:17;;;;;;;44.25;12.13;;;;;;;;;;4972941;28;20037;-68
2022/10/09 03:20:44;;;;;;;34.25;13.18;;;;;;;;;;4973166;28;20134;-67
2022/10/09 03:23:09;;;;;;;42.47;14.68;;;;;;;;;;4974443;28;22232;-68
2022/10/09 03:25:34;;;;;;;43.65;14.43;;;;;;;;;;4961684;28;20038;-67
2022/10/09 03:28:00;;;;;;;46.22;15.88;;;;;;;;;;4971876;28;20042;-68
2022/10/09 03:30:29;;;;;;;45.67;17.23;;;;;;;;;;4971271;28;20128;-68
2022/10/09 03:32:54;;;;;;;42.00;15.05;;;;;;;;;;4969018;28;20509;-68
2022/10/09 03:35:19;;;;;;;33.10;12.70;;;;;;;;;;4968575;28;20061;-67
2022/10/09 03:37:44;;;;;;;28.10;11.45;;;;;;;;;;4966632;28;20054;-67
2022/10/09 03:40:12;;;;;;;27.85;11.15;;;;;;;;;;4973956;28;20522;-67
2022/10/09 03:42:38;;;;;;;25.10;11.43;;;;;;;;;;4969364;28;20033;-67
2022/10/09 03:45:05;;;;;;;37.72;12.05;;;;;;;;;;4968804;28;20030;-68
2022/10/09 03:47:30;;;;;;;31.85;12.93;;;;;;;;;;4966405;28;20034;-68
2022/10/09 03:49:58;;;;;;;28.58;11.75;;;;;;;;;;4961494;28;20037;-68
2022/10/09 03:52:24;;;;;;;29.15;12.98;;;;;;;;;;4969078;28;20672;-67
2022/10/09 03:54:49;;;;;;;29.92;12.70;;;;;;;;;;4972167;28;20472;-68
2022/10/09 03:57:17;;;;;;;33.83;12.75;;;;;;;;;;4967452;28;20263;-68
2022/10/09 03:59:42;;;;;;;28.70;12.20;;;;;;;;;;4974966;28;20052;-68
2022/10/09 04:02:08;;;;;;;29.83;13.00;;;;;;;;;;4967825;28;20152;-68
2022/10/09 04:04:33;;;;;;;33.53;14.02;;;;;;;;;;4957062;28;20332;-68
2022/10/09 04:06:59;;;;;;;32.40;14.13;;;;;;;;;;4963271;28;20034;-68
2022/10/09 04:09:24;;;;;;;30.42;14.25;;;;;;;;;;4957555;28;20037;-68
2022/10/09 04:11:54;;;;;;;30.35;12.18;;;;;;;;;;4969117;28;20713;-67
2022/10/09 04:14:22;;;;;;;31.23;11.52;;;;;;;;;;4960319;28;20045;-67
2022/10/09 04:16:47;;;;;;;37.75;15.88;;;;;;;;;;4967374;28;20079;-68
2022/10/09 04:19:13;;;;;;;37.95;16.70;;;;;;;;;;4968199;28;20042;-67
2022/10/09 04:21:38;;;;;;;38.25;16.65;;;;;;;;;;4967531;28;21596;-67
2022/10/09 04:24:07;;;;;;;32.35;12.55;;;;;;;;;;4972617;28;20034;-68
2022/10/09 04:26:32;;;;;;;29.17;10.15;;;;;;;;;;4966792;28;22199;-66
2022/10/09 04:28:57;;;;;;;24.60;9.02;;;;;;;;;;4965350;28;20034;-66
2022/10/09 04:31:22;;;;;;;41.78;10.68;;;;;;;;;;4966921;28;20124;-66
2022/10/09 04:33:49;;;;;;;26.73;8.93;;;;;;;;;;4968227;28;20601;-66
2022/10/09 04:36:14;;;;;;;27.77;8.48;;;;;;;;;;4967336;28;20319;-65
2022/10/09 04:38:40;;;;;;;20.00;7.05;;;;;;;;;;4981699;28;20038;-66
2022/10/09 04:41:05;;;;;;;21.75;6.95;;;;;;;;;;4965669;28;20488;-66
2022/10/09 04:43:31;;;;;;;24.25;7.95;;;;;;;;;;4951095;28;20064;-65
2022/10/09 04:45:57;;;;;;;28.23;8.10;;;;;;;;;;4964446;28;20861;-66
2022/10/09 04:48:23;;;;;;;22.58;7.85;;;;;;;;;;4965762;28;20037;-65
2022/10/09 04:50:48;;;;;;;27.08;9.35;;;;;;;;;;4967676;28;20041;-66
2022/10/09 04:53:14;;;;;;;27.08;7.72;;;;;;;;;;4969143;28;20116;-66
2022/10/09 04:55:41;;;;;;;23.30;8.27;;;;;;;;;;4970212;28;20037;-66
2022/10/09 04:58:07;;;;;;;21.77;7.85;;;;;;;;;;4969587;28;20136;-66
2022/10/09 05:00:32;;;;;;;24.25;9.30;;;;;;;;;;4968917;28;20061;-66
2022/10/09 05:03:00;;;;;;;27.73;10.13;;;;;;;;;;4968299;28;20033;-65
2022/10/09 05:05:25;;;;;;;23.30;9.93;;;;;;;;;;4969195;28;20163;-65
2022/10/09 05:07:50;;;;;;;23.90;7.50;;;;;;;;;;4968664;28;20034;-66
2022/10/09 05:10:16;;;;;;;26.48;7.80;;;;;;;;;;4968508;28;20517;-66
2022/10/09 05:12:43;;;;;;;23.35;8.93;;;;;;;;;;4967680;28;20030;-67
2022/10/09 05:15:08;;;;;;;23.90;8.43;;;;;;;;;;5004351;28;20037;-66
2022/10/09 05:17:34;;;;;;;22.52;8.02;;;;;;;;;;5001968;28;20033;-66
2022/10/09 05:20:00;;;;;;;21.98;8.10;;;;;;;;;;5002164;28;20025;-66
2022/10/09 05:22:26;;;;;;;28.92;8.80;;;;;;;;;;5002466;28;20026;-66
2022/10/09 05:24:52;;;;;;;32.25;11.35;;;;;;;;;;5004367;28;20701;-66
2022/10/09 05:27:17;;;;;;;26.42;11.82;;;;;;;;;;4999281;28;20052;-66
2022/10/09 05:29:42;;;;;;;34.60;13.77;;;;;;;;;;5003238;28;20064;-66
2022/10/09 05:32:08;;;;;;;32.65;13.45;;;;;;;;;;5003497;28;20053;-66
2022/10/09 05:34:33;;;;;;;33.38;13.60;;;;;;;;;;5002486;28;20040;-66
2022/10/09 05:36:59;;;;;;;25.73;11.32;;;;;;;;;;4998559;28;20072;-67
2022/10/09 05:39:24;;;;;;;27.83;9.68;;;;;;;;;;5002632;28;20033;-66
2022/10/09 05:41:50;;;;;;;35.08;10.30;;;;;;;;;;4997182;28;20137;-67
2022/10/09 05:44:17;;;;;;;31.30;9.80;;;;;;;;;;5003561;28;20040;-66
2022/10/09 05:46:43;;;;;;;28.23;9.23;;;;;;;;;;5003748;28;20556;-66
2022/10/09 05:49:12;;;;;;;27.67;8.55;;;;;;;;;;4996113;28;20035;-67
2022/10/09 05:51:37;;;;;;;22.05;8.32;;;;;;;;;;5000375;28;20080;-66
2022/10/09 05:54:04;;;;;;;21.63;8.20;;;;;;;;;;4998085;28;20017;-66
2022/10/09 05:56:33;;;;;;;24.00;7.90;;;;;;;;;;4999117;28;20029;-66
2022/10/09 05:59:02;;;;;;;21.63;9.25;;;;;;;;;;5004377;28;20059;-66
2022/10/09 06:01:29;;;;;;;29.33;10.55;;;;;;;;;;5004102;28;20168;-65
2022/10/09 06:03:55;;;;;;;29.00;9.95;;;;;;;;;;5011042;28;20017;-66
2022/10/09 06:06:22;;;;;;;29.58;10.73;;;;;;;;;;4999684;28;20013;-65
2022/10/09 06:08:47;;;;;;;26.85;10.52;;;;;;;;;;5004831;28;20840;-65
2022/10/09 06:11:14;;;;;;;27.67;13.32;;;;;;;;;;5004578;28;20115;-66
2022/10/09 06:13:43;;;;;;;20.02;8.50;;;;;;;;;;5005208;28;20031;-66
2022/10/09 06:16:10;;;;;;;19.10;7.68;;;;;;;;;;5005106;28;20443;-66
2022/10/09 06:18:36;;;;;;;23.50;8.32;;;;;;;;;;4997709;28;20021;-66
2022/10/09 06:21:02;;;;;;;24.58;7.97;;;;;;;;;;5004938;28;20056;-65
2022/10/09 06:23:28;;;;;;;23.95;7.43;;;;;;;;;;4996430;28;20135;-66
2022/10/09 06:25:59;;;;;;;23.67;7.95;;;;;;;;;;5002117;28;20039;-65
2022/10/09 06:28:24;;;;;;;19.42;7.47;;;;;;;;;;5005510;28;20512;-66
2022/10/09 06:30:52;;;;;;;19.25;7.20;;;;;;;;;;5005712;28;20434;-66
2022/10/09 06:33:21;;;;;;;17.67;7.68;;;;;;;;;;4995915;28;20159;-66
2022/10/09 06:35:46;;;;;;;28.55;8.77;;;;;;;;;;5004169;28;20045;-66
2022/10/09 06:38:14;;;;;;;23.27;9.43;;;;;;;;;;4983673;28;20044;-66
2022/10/09 06:40:39;;;;;;;25.45;9.75;;;;;;;;;;5002067;28;20092;-66
2022/10/09 06:43:06;;;;;;;22.38;8.98;;;;;;;;;;5000537;28;20160;-66
2022/10/09 06:45:35;;;;;;;24.38;10.18;;;;;;;;;;5002393;28;20032;-66
2022/10/09 06:48:00;;;;;;;26.08;10.45;;;;;;;;;;5002288;28;20477;-66
2022/10/09 06:50:28;;;;;;;24.50;9.50;;;;;;;;;;5005573;28;20284;-65
2022/10/09 06:52:54;;;;;;;22.95;10.00;;;;;;;;;;5005154;28;20708;-66
2022/10/09 06:55:21;;;;;;;25.13;10.07;;;;;;;;;;5005245;28;20049;-66
2022/10/09 06:57:47;;;;;;;26.55;9.30;;;;;;;;;;5003046;28;20026;-66
2022/10/09 07:00:13;;;;;;;19.25;7.90;;;;;;;;;;5002804;28;20153;-66
2022/10/09 07:02:39;;;;;;;25.73;9.52;;;;;;;;;;5004181;28;20393;-66
2022/10/09 07:05:05;;;;;;;16.33;8.15;;;;;;;;;;5003459;28;20033;-65
2022/10/09 07:07:31;;;;;;;22.40;8.70;;;;;;;;;;5002225;28;20026;-65
2022/10/09 07:09:57;;;;;;;24.83;8.52;;;;;;;;;;5000978;28;20431;-65
2022/10/09 07:12:22;;;;;;;20.98;8.20;;;;;;;;;;5001866;28;20031;-66
2022/10/09 07:14:48;;;;;;;25.25;7.72;;;;;;;;;;5003984;28;20357;-66
2022/10/09 07:17:13;;;;;;;20.13;6.85;;;;;;;;;;5005528;28;20624;-66
2022/10/09 07:19:39;;;;;;;30.13;12.60;;;;;;;;;;5000767;28;20815;-65
2022/10/09 07:22:04;;;;;;;45.90;19.23;;;;;;;;;;5002520;28;20520;-66
2022/10/09 07:24:29;;;;;;;54.20;20.92;;;;;;;;;;5002421;28;20330;-66
2022/10/09 07:26:56;;;;;;;116.88;45.38;;;;;;;;;;5003143;28;20099;-66
2022/10/09 07:29:21;;;;;;;83.43;33.13;;;;;;;;;;5001482;28;20637;-66
2022/10/09 07:31:48;;;;;;;71.15;31.17;;;;;;;;;;5003705;28;20057;-66
2022/10/09 07:34:14;;;;;;;22.25;8.63;;;;;;;;;;5002865;28;20069;-65
2022/10/09 07:36:39;;;;;;;18.80;7.25;;;;;;;;;;5001896;28;20114;-66
2022/10/09 07:39:07;;;;;;;20.05;7.18;;;;;;;;;;5002492;28;20239;-65
2022/10/09 07:41:33;;;;;;;17.67;6.63;;;;;;;;;;5003228;28;20366;-66
2022/10/09 07:43:58;;;;;;;15.95;5.90;;;;;;;;;;5001230;28;20037;-66
2022/10/09 07:46:25;;;;;;;17.52;6.00;;;;;;;;;;5004671;28;20155;-66
2022/10/09 07:48:55;;;;;;;15.40;5.82;;;;;;;;;;5004359;28;20123;-67
2022/10/09 07:51:22;;;;;;;19.48;6.43;;;;;;;;;;4998896;28;20627;-66
2022/10/09 07:53:48;;;;;;;16.33;5.97;;;;;;;;;;5002874;28;20663;-65
2022/10/09 07:56:13;;;;;;;17.30;5.63;;;;;;;;;;5003574;28;20135;-67
2022/10/09 07:58:38;;;;;;;18.33;5.53;;;;;;;;;;5004955;28;20510;-67
2022/10/09 08:01:05;;;;;;;14.20;4.75;;;;;;;;;;4999319;28;20588;-67
2022/10/09 08:03:30;;;;;;;13.10;4.68;;;;;;;;;;5004378;28;20434;-67
2022/10/09 08:05:56;;;;;;;13.90;4.05;;;;;;;;;;4998503;28;20110;-66
2022/10/09 08:08:24;;;;;;;14.07;3.60;;;;;;;;;;5005652;28;20013;-66
2022/10/09 08:10:49;;;;;;;12.43;4.18;;;;;;;;;;5003022;28;20033;-65
2022/10/09 08:13:14;;;;;;;15.88;4.20;;;;;;;;;;5004136;28;20080;-67
2022/10/09 08:15:41;;;;;;;17.02;4.88;;;;;;;;;;5001751;28;20033;-67
2022/10/09 08:18:07;;;;;;;11.13;3.40;;;;;;;;;;5002048;28;20040;-65
2022/10/09 08:20:32;;;;;;;19.00;8.23;;;;;;;;;;5002450;28;20446;-67
2022/10/09 08:23:00;;;;;;;34.33;15.35;;;;;;;;;;5003191;28;20061;-64
2022/10/09 08:25:26;;;;;;;33.50;15.38;;;;;;;;;;5002961;28;20580;-67
2022/10/09 08:27:51;;;;;;;35.50;14.90;;;;;;;;;;5000210;28;20029;-66
2022/10/09 08:30:17;;;;;;;26.98;12.40;;;;;;;;;;5004239;28;20026;-67
2022/10/09 08:32:42;;;;;;;27.60;14.35;;;;;;;;;;5000805;28;20840;-66
2022/10/09 08:35:10;;;;;;;31.65;13.43;;;;;;;;;;4999963;28;20745;-66
2022/10/09 08:37:35;;;;;;;28.63;14.40;;;;;;;;;;5002576;28;20087;-66
2022/10/09 08:40:00;;;;;;;19.25;9.50;;;;;;;;;;4999987;28;20552;-63
2022/10/09 08:42:38;;;;;;;13.93;6.25;;;;;;;;;;4998757;28;20248;-67
2022/10/09 08:45:04;;;;;;;13.13;4.57;;;;;;;;;;5002474;28;20032;-66
2022/10/09 08:47:39;;;;;;;18.77;4.88;;;;;;;;;;5005614;28;20021;-67
2022/10/09 08:50:10;;;;;;;23.83;5.82;;;;;;;;;;5004998;28;20025;-64
2022/10/09 08:52:40;;;;;;;14.75;5.40;;;;;;;;;;5004410;28;20057;-68
2022/10/09 08:55:11;;;;;;;12.73;4.00;;;;;;;;;;5001720;28;20612;-67
2022/10/09 08:57:38;;;;;;;11.85;3.03;;;;;;;;;;5004157;28;20859;-67
2022/10/09 09:00:05;;;;;;;13.55;2.08;;;;;;;;;;5002305;28;20041;-66
2022/10/09 09:02:45;;;;;;;10.40;2.38;;;;;;;;;;5005346;28;20025;-72
2022/10/09 09:05:19;;;;;;;8.82;2.78;;;;;;;;;;5002957;28;20025;-70
2022/10/09 09:07:52;;;;;;;11.57;3.25;;;;;;;;;;5006837;28;20053;-71
2022/10/09 09:10:36;;;;;;;10.18;3.10;;;;;;;;;;4998986;28;20712;-70
2022/10/09 09:13:01;;;;;;;11.23;3.63;;;;;;;;;;5005906;28;20572;-69
2022/10/09 09:15:45;;;;;;;13.32;3.45;;;;;;;;;;4998613;28;20033;-71
2022/10/09 09:18:26;;;;;;;11.20;3.95;;;;;;;;;;4995316;28;20028;-70
2022/10/09 09:20:52;;;;;;;16.15;4.18;;;;;;;;;;5000894;28;20037;-69
2022/10/09 09:23:19;;;;;;;11.32;4.20;;;;;;;;;;4997730;28;20103;-70
2022/10/09 09:25:45;;;;;;;14.70;4.30;;;;;;;;;;5000524;28;20123;-71
2022/10/09 09:28:19;;;;;;;15.23;4.90;;;;;;;;;;5000702;28;20444;-72
2022/10/09 09:30:54;;;;;;;20.55;4.95;;;;;;;;;;4998572;28;20402;-70
2022/10/09 09:33:38;;;;;;;19.55;4.80;;;;;;;;;;5001051;28;20044;-71
2022/10/09 09:36:09;;;;;;;18.40;4.72;;;;;;;;;;5006188;28;20033;-71
2022/10/09 09:38:35;;;;;;;21.23;4.80;;;;;;;;;;5005473;28;20029;-70
2022/10/09 09:41:02;;;;;;;22.17;5.30;;;;;;;;;;5006748;28;20521;-70
2022/10/09 09:43:28;;;;;;;14.80;4.13;;;;;;;;;;5005528;28;20076;-70
2022/10/09 09:45:55;;;;;;;16.48;4.20;;;;;;;;;;5005040;28;20025;-72
2022/10/09 09:48:36;;;;;;;12.23;4.03;;;;;;;;;;5005380;28;20689;-70
2022/10/09 09:51:06;;;;;;;15.95;4.85;;;;;;;;;;5004591;28;20021;-69
2022/10/09 09:53:57;;;;;;;15.50;4.53;;;;;;;;;;5003988;28;20928;-75
2022/10/09 09:56:32;;;;;;;22.70;5.80;;;;;;;;;;5004616;28;20030;-73
2022/10/09 09:58:58;;;;;;;22.92;6.10;;;;;;;;;;5017773;28;20041;-73
2022/10/09 10:01:30;;;;;;;15.65;4.97;;;;;;;;;;4998532;28;20032;-70
2022/10/09 10:03:57;;;;;;;15.65;4.97;;;;;;;;;;5005852;28;20018;-69
2022/10/09 10:06:29;;;;;;;11.73;3.83;;;;;;;;;;5005493;28;20059;-69
2022/10/09 10:09:01;;;;;;;21.27;4.85;;;;;;;;;;5007224;28;20025;-68
2022/10/09 10:11:27;;;;;;;18.25;5.18;;;;;;;;;;4999133;28;20484;-69
2022/10/09 10:13:52;;;;;;;15.80;4.80;;;;;;;;;;5004279;28;20037;-69
2022/10/09 10:16:25;;;;;;;14.18;4.22;;;;;;;;;;4998831;28;20485;-69
2022/10/09 10:18:51;;;;;;;12.82;3.92;;;;;;;;;;4998967;28;20029;-66
2022/10/09 10:21:19;;;;;;;15.98;3.65;;;;;;;;;;5005725;28;20022;-69
2022/10/09 10:23:51;;;;;;;18.08;5.30;;;;;;;;;;4985935;28;20045;-70
2022/10/09 10:26:21;;;;;;;18.10;4.95;;;;;;;;;;5003146;28;20904;-69
2022/10/09 10:28:50;;;;;;;14.13;3.47;;;;;;;;;;4996594;28;20025;-69
2022/10/09 10:31:25;;;;;;;15.73;3.80;;;;;;;;;;5002808;28;20139;-70
2022/10/09 10:33:52;;;;;;;11.95;3.25;;;;;;;;;;4999770;28;20048;-73
2022/10/09 10:36:20;;;;;;;12.75;3.63;;;;;;;;;;5002281;28;20030;-68
2022/10/09 10:38:54;;;;;;;10.80;3.25;;;;;;;;;;4994479;28;20568;-68
2022/10/09 10:41:29;;;;;;;16.80;3.85;;;;;;;;;;5002754;28;20045;-67
2022/10/09 10:44:00;;;;;;;10.48;2.90;;;;;;;;;;4997392;28;20119;-70
2022/10/09 10:47:05;;;;;;;12.02;3.45;;;;;;;;;;4991884;28;20113;-69
2022/10/09 10:49:30;;;;;;;10.32;3.15;;;;;;;;;;4957936;28;20078;-68
2022/10/09 10:52:01;;;;;;;9.02;2.70;;;;;;;;;;4960437;28;20086;-67
2022/10/09 10:54:36;;;;;;;13.68;3.42;;;;;;;;;;4978388;28;20657;-69
2022/10/09 10:57:01;;;;;;;12.77;4.88;;;;;;;;;;4999491;28;20033;-68
2022/10/09 10:59:38;;;;;;;16.13;5.30;;;;;;;;;;5005199;28;20036;-70
2022/10/09 11:02:13;;;;;;;14.32;4.47;;;;;;;;;;5002777;28;20029;-70
2022/10/09 11:04:38;;;;;;;10.18;3.30;;;;;;;;;;5001262;28;20026;-69
2022/10/09 11:07:08;;;;;;;12.48;3.63;;;;;;;;;;5007200;28;20029;-69
2022/10/09 11:09:46;;;;;;;10.18;2.47;;;;;;;;;;5006185;28;20420;-69
2022/10/09 11:12:15;;;;;;;9.68;2.85;;;;;;;;;;4996409;28;20022;-69
2022/10/09 11:15:00;;;;;;;11.02;2.47;;;;;;;;;;5005720;28;20032;-68
2022/10/09 11:17:31;;;;;;;10.63;3.67;;;;;;;;;;5004915;28;20025;-68
2022/10/09 11:19:56;;;;;;;11.80;2.92;;;;;;;;;;5001693;28;20033;-68
2022/10/09 11:22:37;;;;;;;10.68;2.40;;;;;;;;;;5001895;28;20366;-69
2022/10/09 11:25:08;;;;;;;8.17;2.40;;;;;;;;;;5005927;28;20500;-69
2022/10/09 11:27:50;;;;;;;12.57;3.50;;;;;;;;;;4997724;28;20075;-68
2022/10/09 11:30:17;;;;;;;10.00;2.65;;;;;;;;;;4993049;28;20557;-69
2022/10/09 11:32:43;;;;;;;12.55;2.80;;;;;;;;;;5004197;28;20017;-68
2022/10/09 11:35:14;;;;;;;13.95;2.92;;;;;;;;;;5002554;28;20295;-67
2022/10/09 11:37:40;;;;;;;12.75;2.90;;;;;;;;;;4982637;28;20295;-68
2022/10/09 11:40:23;;;;;;;9.82;2.60;;;;;;;;;;5003681;28;20029;-69
2022/10/09 11:42:59;;;;;;;12.25;3.40;;;;;;;;;;5004810;28;20068;-68
2022/10/09 11:45:39;;;;;;;17.17;4.28;;;;;;;;;;5001853;28;20644;-68
2022/10/09 11:48:09;;;;;;;16.80;4.05;;;;;;;;;;5002485;28;20036;-69
2022/10/09 11:50:46;;;;;;;10.15;3.83;;;;;;;;;;4977591;28;20029;-68
2022/10/09 11:53:16;;;;;;;8.93;2.80;;;;;;;;;;4991953;28;20256;-68
2022/10/09 11:55:42;;;;;;;11.13;3.10;;;;;;;;;;5017130;28;20036;-69
2022/10/09 11:58:23;;;;;;;12.40;3.83;;;;;;;;;;5003081;28;20529;-68
2022/10/09 12:00:49;;;;;;;;;;;;;;;;;;5003066;28;20115;-68
2022/10/09 12:03:32;;;;;;;14.20;4.50;;;;;;;;;;5000871;28;19913;-68
2022/10/09 12:06:01;;;;;;;14.18;3.45;;;;;;;;;;5007753;28;20090;-68
2022/10/09 12:08:27;;;;;;;11.88;3.45;;;;;;;;;;4982895;28;20385;-68
2022/10/09 12:11:07;;;;;;;10.38;2.72;;;;;;;;;;5003087;28;20523;-68
2022/10/09 12:13:36;;;;;;;8.23;2.92;;;;;;;;;;4993103;28;20025;-69
2022/10/09 12:16:01;;;;;;;9.05;3.13;;;;;;;;;;4993109;28;20673;-69
2022/10/09 12:18:28;;;;;;;10.55;2.90;;;;;;;;;;5004535;28;20028;-69
2022/10/09 12:20:55;;;;;;;11.55;2.90;;;;;;;;;;4999603;28;20115;-68
2022/10/09 12:23:22;;;;;;;10.52;2.78;;;;;;;;;;5003788;28;20491;-69
2022/10/09 12:25:52;;;;;;;8.48;2.92;;;;;;;;;;5002413;28;20099;-68
2022/10/09 12:28:26;;;;;;;8.52;3.15;;;;;;;;;;4993673;28;20026;-68
2022/10/09 12:30:54;;;;;;;9.13;2.88;;;;;;;;;;5000257;28;20025;-69
2022/10/09 12:33:31;;;;;;;9.60;2.60;;;;;;;;;;4992598;28;20029;-68
2022/10/09 12:36:16;;;;;;;13.30;3.60;;;;;;;;;;4997089;28;20060;-68
2022/10/09 12:38:42;;;;;;;11.30;3.88;;;;;;;;;;5001062;28;21003;-68
2022/10/09 12:41:20;;;;;;;10.48;3.10;;;;;;;;;;4999363;28;20044;-67
2022/10/09 12:43:47;;;;;;;8.82;2.70;;;;;;;;;;4999940;28;20479;-67
2022/10/09 12:46:12;;;;;;;10.95;3.30;;;;;;;;;;5002073;28;20048;-66
2022/10/09 12:48:39;;;;;;;12.38;3.63;;;;;;;;;;5003027;28;20478;-65
2022/10/09 12:51:13;;;;;;;8.73;2.72;;;;;;;;;;5002102;28;20277;-67
2022/10/09 12:53:45;;;;;;;11.13;4.05;;;;;;;;;;4991858;28;20108;-67
2022/10/09 12:56:11;;;;;;;7.75;2.78;;;;;;;;;;5005447;28;20468;-67
2022/10/09 12:58:38;;;;;;;9.10;3.05;;;;;;;;;;5003111;28;20576;-67
2022/10/09 13:01:10;;;;;;;9.80;3.38;;;;;;;;;;4993362;28;20026;-67
2022/10/09 13:03:36;;;;;;;8.82;3.05;;;;;;;;;;5004768;28;20096;-67
2022/10/09 13:06:06;;;;;;;7.13;2.58;;;;;;;;;;5004949;28;20350;-67
2022/10/09 13:08:33;;;;;;;7.35;2.75;;;;;;;;;;5005727;28;20021;-67
2022/10/09 13:11:25;;;;;;;10.90;2.47;;;;;;;;;;5005384;28;20174;-67
2022/10/09 13:13:51;;;;;;;8.50;2.80;;;;;;;;;;4987673;28;20040;-67
2022/10/09 13:16:19;;;;;;;9.18;3.08;;;;;;;;;;5002108;28;20021;-68
2022/10/09 13:18:58;;;;;;;9.20;3.33;;;;;;;;;;5005436;28;20026;-67
2022/10/09 13:21:26;;;;;;;13.55;4.10;;;;;;;;;;5004613;28;20273;-67
2022/10/09 13:23:51;;;;;;;9.48;3.90;;;;;;;;;;4990951;28;20033;-67
2022/10/09 13:26:24;;;;;;;11.57;3.45;;;;;;;;;;5004400;28;20351;-68
2022/10/09 13:28:50;;;;;;;9.80;3.95;;;;;;;;;;4978547;28;20121;-69
2022/10/09 13:31:17;;;;;;;8.60;3.00;;;;;;;;;;5005493;28;20262;-68
2022/10/09 13:33:45;;;;;;;10.23;3.33;;;;;;;;;;4990302;28;20041;-69
2022/10/09 13:36:15;;;;;;;11.38;3.80;;;;;;;;;;5000988;28;20416;-69
2022/10/09 13:38:40;;;;;;;11.90;4.43;;;;;;;;;;5001237;28;20033;-69
2022/10/09 13:41:11;;;;;;;9.63;3.03;;;;;;;;;;5003802;28;20300;-69
2022/10/09 13:43:37;;;;;;;7.97;2.80;;;;;;;;;;5002857;28;20021;-69
2022/10/09 13:46:02;;;;;;;8.23;2.70;;;;;;;;;;4999949;28;20071;-69
2022/10/09 13:48:30;;;;;;;9.55;2.75;;;;;;;;;;4997619;28;20170;-69
2022/10/09 13:50:57;;;;;;;10.35;4.10;;;;;;;;;;5000058;28;20025;-69
2022/10/09 13:53:26;;;;;;;7.65;3.42;;;;;;;;;;5000838;28;20410;-68
2022/10/09 13:55:52;;;;;;;12.57;3.28;;;;;;;;;;5002967;28;20045;-68
2022/10/09 13:58:20;;;;;;;16.25;4.60;;;;;;;;;;5005763;28;20029;-68
2022/10/09 14:00:46;;;;;;;8.98;2.90;;;;;;;;;;4981070;28;20945;-68
2022/10/09 14:03:11;;;;;;;8.43;3.28;;;;;;;;;;5002977;28;20025;-68
2022/10/09 14:05:37;;;;;;;17.63;5.68;;;;;;;;;;4982792;28;20036;-68
2022/10/09 14:08:03;;;;;;;13.32;4.20;;;;;;;;;;5003679;28;20029;-68
2022/10/09 14:10:28;;;;;;;13.35;5.10;;;;;;;;;;4985996;28;20033;-67
2022/10/09 14:12:54;;;;;;;13.18;5.07;;;;;;;;;;5004386;28;20145;-68
2022/10/09 14:15:19;;;;;;;14.27;5.55;;;;;;;;;;5001699;28;20033;-68
2022/10/09 14:17:45;;;;;;;13.18;5.70;;;;;;;;;;5003299;28;20119;-68
2022/10/09 14:20:13;;;;;;;11.85;4.72;;;;;;;;;;5005209;28;20034;-68
2022/10/09 14:22:38;;;;;;;10.60;4.13;;;;;;;;;;5002208;28;20119;-69
2022/10/09 14:25:04;;;;;;;9.75;3.63;;;;;;;;;;4986557;28;20025;-68
2022/10/09 14:27:30;;;;;;;14.18;4.32;;;;;;;;;;5002229;28;20025;-67
2022/10/09 14:29:55;;;;;;;9.25;4.15;;;;;;;;;;5004767;28;20029;-67
2022/10/09 14:32:21;;;;;;;12.20;5.03;;;;;;;;;;5000462;28;20030;-68
2022/10/09 14:34:46;;;;;;;10.80;4.55;;;;;;;;;;4999232;28;20034;-68